Latest Coastal Weather Observations for Cape Nelson

IDV60701

Issued at 3:51 am EST Wednesday 27 July 2016 (issued every 10 minutes, with the page automatically refreshed every 10 minutes)

About coastal observations | Map of coastal stations | Coastal observations for VIC | Marine services | Other Formats
Station Details ID: 090184 Name: CAPE NELSON LIGHTHOUSE Lat: -38.43 Lon: 141.54 Height: 45.4 m
Data from the previous 72 hours. | See also: Recent months at Cape Nelson
Date/Time
EST
Temp
°C
Wind Pressure Rain since
9am
mm
Weather Cloud Vis
km
Sea
Height
m
Swell
Dir  Spd
kts
Gust
kts
hPa Trend Height
m
Period
s
Dir
27/03:30am 10.5 S 24 38 1006.9 - 6.2 - - - - - - -
27/03:22am 10.4 S 17 38 1006.9 - 6.2 - - - - - - -
27/03:00am 10.8 SSE 15 25 1006.0 - 5.6 Rain - - - - - -
27/02:35am 11.1 WNW 14 25 1005.5 - 5.0 - - - - - - -
27/02:30am 10.9 NW 10 18 1005.3 - 5.0 - - - - - - -
27/02:00am 11.9 WNW 14 21 1004.3 - 5.0 - - - - - - -
27/01:30am 11.6 NW 14 28 1004.3 - 5.0 - - - - - - -
27/01:21am 11.5 WNW 16 25 1004.0 - 5.0 - - - - - - -
27/01:00am 11.6 W 23 32 1003.8 - 5.0 - - - - - - -
27/12:50am 11.7 W 15 29 1003.5 - 5.0 - - - - - - -
27/12:30am 10.6 WNW 12 22 1003.3 - 5.0 - - - - - - -
27/12:00am 9.4 NW 15 21 1003.0 - 4.4 Recent precip. - - - - - -
 
Date/Time
EST
Temp
°C
Wind Pressure Rain since
9am
mm
Weather Cloud Vis
km
Sea
Height
m
Swell
Dir  Spd
kts
Gust
kts
hPa Trend Height
m
Period
s
Dir
26/11:30pm 8.9 NW 14 21 1002.8 - 4.2 - - - - - - -
26/11:00pm 8.3 NNW 14 21 1002.4 - 4.2 - - - - - - -
26/10:30pm 8.2 NNW 14 20 1002.1 - 4.2 - - - - - - -
26/10:00pm 8.0 NNW 17 23 1001.6 - 4.2 - - - - - - -
26/09:39pm 8.2 NNW 17 27 1001.5 - 4.2 - - - - - - -
26/09:30pm 8.3 NNW 17 26 1001.6 - 4.2 - - - - - - -
26/09:24pm 8.3 NNW 16 26 1001.5 - 4.2 - - - - - - -
26/09:00pm 8.1 NNW 16 22 1001.6 - 4.2 Recent precip. - - - - - -
26/08:44pm 8.0 NNW 16 26 1001.6 - 4.2 - - - - - - -
26/08:30pm 8.1 NNW 16 25 1001.7 - 4.2 - - - - - - -
26/08:06pm 8.2 NNW 15 26 1001.8 - 4.0 - - - - - - -
26/08:00pm 8.1 NNW 14 20 1001.9 - 4.0 - - - - - - -
26/07:30pm 8.1 N 14 20 1002.1 - 4.0 - - - - - - -
26/07:00pm 7.9 N 13 23 1002.1 - 3.8 - - - - - - -
26/06:30pm 7.8 N 14 21 1002.5 - 3.2 - - - - - - -
26/06:00pm 7.9 N 13 20 1003.1 - 2.6 Rain - - - - - -
26/05:30pm 7.9 NNW 15 22 1003.2 - 2.2 - - - - - - -
26/05:00pm 8.2 NNW 14 26 1003.5 - 2.2 - - - - - - -
26/04:44pm 8.5 N 15 25 1003.8 - 2.0 - - - - - - -
26/04:30pm 8.7 NNW 16 25 1003.8 - 2.0 - - - - - - -
26/04:05pm 8.9 NNW 16 27 1004.4 - 2.0 - - - - - - -
26/04:00pm 8.9 NNW 14 22 1004.4 - 2.0 - - - - - - -
26/03:30pm 9.2 NNW 16 22 1004.7 - 2.0 - - - - - - -
26/03:01pm 8.7 NNW 15 25 1005.1 - 2.0 - - - - - - -
26/03:00pm 8.7 NNW 15 21 1005.1 - 2.0 - - - - - - -
26/02:41pm 8.7 N 15 25 1005.4 - 2.0 - - - - - - -
26/02:30pm 8.8 NNW 15 23 1005.6 - 2.0 - - - - - - -
26/02:00pm 8.7 NNW 15 25 1006.5 - 2.0 - - - - - - -
26/01:46pm 8.0 NNW 15 25 1006.8 - 2.0 - - - - - - -
26/01:30pm 8.2 NNW 14 22 1007.3 - 1.4 - - - - - - -
26/01:00pm 8.4 NNW 12 18 1007.6 - 1.2 - - - - - - -
26/12:30pm 7.8 NNW 15 23 1008.3 - 1.0 - - - - - - -
26/12:12pm 7.6 NNW 15 28 1008.7 - 1.0 - - - - - - -
26/12:00pm 8.0 NNW 12 18 1008.9 - 0.6 Rain - - - - - -
26/11:30am 8.4 NNW 13 22 1009.1 - 0.4 - - - - - - -
26/11:00am 7.6 NNW 15 22 1009.4 - 0.4 - - - - - - -
26/10:30am 7.7 NNW 13 23 1009.5 - 0.4 - - - - - - -
26/10:00am 7.5 NNW 15 23 1009.7 - 0.2 - - - - - - -
26/09:30am 9.7 WNW 15 22 1009.6 - 0.0 - - - - - - -
26/09:00am 9.3 WNW 15 22 1009.6 - 9.0 Recent precip. - - - - - -
26/08:32am 8.6 W 18 28 1009.6 - 9.0 - - - - - - -
26/08:30am 8.6 W 19 28 1009.6 - 9.0 - - - - - - -
26/08:24am 9.5 WNW 18 28 1009.4 - 8.8 - - - - - - -
26/08:00am 10.0 W 16 24 1009.2 - 8.8 - - - - - - -
26/07:30am 10.0 W 15 25 1009.3 - 8.8 - - - - - - -
26/07:00am 10.2 W 20 30 1009.1 - 8.8 - - - - - - -
26/06:30am 10.1 W 21 31 1008.9 - 8.8 - - - - - - -
26/06:07am 9.4 W 18 29 1008.8 - 8.8 - - - - - - -
26/06:00am 9.3 W 22 33 1008.7 - 8.8 Recent precip. - - - - - -
26/05:51am 8.7 W 23 38 1008.9 - 8.8 - - - - - - -
26/05:48am 8.7 W 20 38 1008.7 - 8.8 - - - - - - -
26/05:30am 9.1 WNW 19 29 1008.7 - 8.6 - - - - - - -
26/05:00am 9.5 W 19 31 1008.7 - 8.4 - - - - - - -
26/04:30am 9.9 W 23 33 1008.5 - 8.4 - - - - - - -
26/04:03am 10.1 W 29 39 1008.5 - 8.4 - - - - - - -
26/04:00am 10.3 W 28 37 1008.5 - 8.4 - - - - - - -
26/03:30am 10.0 W 29 41 1008.3 - 8.4 - - - - - - -
26/03:00am 9.4 W 25 36 1008.3 - 8.4 - - - - - - -
26/02:30am 9.9 W 25 36 1008.2 - 8.4 - - - - - - -
26/02:00am 9.9 W 24 39 1008.0 - 8.4 - - - - - - -
26/01:50am 9.9 W 27 39 1008.0 - 8.4 - - - - - - -
26/01:30am 10.2 W 33 45 1007.6 - 8.4 - - - - - - -
26/01:00am 10.8 W 28 39 1007.4 - 8.4 - - - - - - -
26/12:48am 10.5 W 26 38 1007.4 - 8.4 - - - - - - -
26/12:47am 10.5 W 26 38 1007.4 - 8.4 - - - - - - -
26/12:32am 10.4 W 25 40 1007.2 - 8.4 - - - - - - -
26/12:30am 10.3 W 23 37 1007.2 - 8.4 - - - - - - -
26/12:00am 10.2 W 27 39 1007.2 - 8.4 - - - - - - -
 
Date/Time
EST
Temp
°C
Wind Pressure Rain since
9am
mm
Weather Cloud Vis
km
Sea
Height
m
Swell
Dir  Spd
kts
Gust
kts
hPa Trend Height
m
Period
s
Dir
25/11:30pm 10.1 W 26 38 1006.9 - 8.4 - - - - - - -
25/11:00pm 9.4 W 23 38 1006.9 - 8.4 - - - - - - -
25/10:30pm 9.2 W 25 42 1006.2 - 8.0 - - - - - - -
25/10:25pm 8.8 WNW 22 42 1006.5 - 8.0 - - - - - - -
25/10:22pm 8.2 WNW 19 32 1006.5 - 8.0 - - - - - - -
25/10:20pm 7.9 WNW 19 32 1006.2 - 8.0 - - - - - - -
25/10:16pm 8.2 NW 22 35 1006.1 - 8.0 - - - - - - -
25/10:12pm 8.5 WNW 26 38 1005.8 - 8.0 - - - - - - -
25/10:10pm 8.7 W 27 38 1005.9 - 8.0 - - - - - - -
25/10:00pm 9.0 W 30 39 1006.3 - 8.0 - - - - - - -
25/09:57pm 8.9 W 29 39 1006.2 - 8.0 - - - - - - -
25/09:45pm 8.6 WNW 19 33 1005.9 - 8.0 - - - - - - -
25/09:31pm 8.3 WNW 24 41 1005.3 - 8.0 - - - - - - -
25/09:30pm 8.4 W 25 41 1005.3 - 8.0 - - - - - - -
25/09:00pm 10.1 W 24 41 1005.7 - 7.8 - - - - - - -
25/08:44pm 10.1 W 27 44 1005.4 - 7.8 - - - - - - -
25/08:41pm 9.9 W 30 44 1005.3 - 7.8 - - - - - - -
25/08:37pm 10.0 W 30 44 1005.2 - 7.8 - - - - - - -
25/08:35pm 10.1 W 28 44 1005.2 - 7.8 - - - - - - -
25/08:30pm 9.8 W 25 42 1005.2 - 7.8 - - - - - - -
25/08:00pm 9.3 W 28 46 1004.3 - 7.8 - - - - - - -
25/07:50pm 10.3 W 26 46 1004.4 - 7.8 - - - - - - -
25/07:34pm 10.2 W 31 48 1004.2 - 7.8 - - - - - - -
25/07:30pm 10.1 W 35 48 1004.1 - 7.8 - - - - - - -
25/07:27pm 9.5 W 35 48 1004.2 - 7.8 - - - - - - -
25/07:25pm 9.7 W 33 48 1003.8 - 7.8 - - - - - - -
25/07:00pm 10.4 W 27 40 1003.4 - 7.8 - - - - - - -
25/06:30pm 10.3 W 26 43 1002.8 - 7.8 - - - - - - -
25/06:00pm 10.0 W 28 47 1002.5 - 7.8 - - - - - - -
25/05:30pm 9.7 W 30 45 1001.9 - 7.8 - - - - - - -
25/05:00pm 10.6 W 31 50 1001.3 - 7.8 - - - - - - -
25/04:54pm 10.5 W 26 50 1001.2 - 7.6 - - - - - - -
25/04:34pm 10.1 W 35 50 1001.1 - 7.6 - - - - - - -
25/04:30pm 9.9 W 37 50 1001.0 - 7.6 - - - - - - -
25/04:26pm 9.6 W 35 50 1000.6 - 7.6 - - - - - - -
25/04:00pm 10.5 W 28 43 1000.0 - 7.6 - - - - - - -
25/03:43pm 10.4 WNW 27 49 999.7 - 7.0 - - - - - - -
25/03:30pm 10.0 WNW 26 37 1000.1 - 7.0 - - - - - - -
25/03:00pm 10.3 W 27 43 999.8 - 5.8 Rain - - - - - -
25/02:30pm 9.6 WNW 27 37 999.7 - 5.2 - - - - - - -
25/02:09pm 9.6 NW 28 54 1000.0 - 3.0 - - - - - - -
25/02:00pm 10.5 NNW 27 39 998.5 - 1.4 - - - - - - -
25/01:30pm 11.7 NNW 19 30 999.5 - 0.6 - - - - - - -
25/01:00pm 12.7 NNW 22 33 1000.5 - 0.6 - - - - - - -
25/12:30pm 12.4 NNW 21 31 1001.6 - 0.4 - - - - - - -
25/12:00pm 13.1 NNW 20 31 1002.8 - 0.4 - - - - - - -
25/11:30am 12.4 NNW 20 33 1003.7 - 0.4 - - - - - - -
25/11:23am 12.3 NW 20 31 1004.0 - 0.4 - - - - - - -
25/11:00am 12.0 NW 18 25 1004.7 - 0.4 - - - - - - -
25/10:34am 11.0 NW 18 28 1005.1 - 0.4 - - - - - - -
25/10:30am 10.7 NW 16 24 1005.2 - 0.4 - - - - - - -
25/10:00am 9.7 NNW 15 20 1005.8 - 0.4 - - - - - - -
25/09:44am 9.5 NNW 17 27 1005.8 - 0.4 - - - - - - -
25/09:30am 9.5 NW 14 20 1006.1 - 0.4 - - - - - - -
25/09:00am 10.6 NW 17 24 1006.4 - 14.2 - - - - - - -
25/08:35am 11.0 WNW 18 30 1006.7 - 14.2 - - - - - - -
25/08:30am 10.8 WNW 17 24 1006.8 - 14.2 - - - - - - -
25/08:00am 11.3 WNW 19 27 1006.9 - 14.2 - - - - - - -
25/07:30am 11.5 W 17 28 1007.0 - 14.2 - - - - - - -
25/07:11am 11.3 W 19 29 1007.0 - 14.2 - - - - - - -
25/07:00am 11.0 W 19 26 1007.0 - 14.2 - - - - - - -
25/06:52am 11.2 W 22 32 1007.0 - 14.2 - - - - - - -
25/06:30am 11.2 W 22 31 1006.7 - 14.2 - - - - - - -
25/06:00am 11.4 W 23 35 1006.3 - 14.2 - - - - - - -
25/05:37am 11.1 W 20 30 1006.1 - 14.2 - - - - - - -
25/05:30am 10.7 W 19 30 1006.1 - 14.2 - - - - - - -
25/05:02am 10.6 NW 15 31 1005.5 - 14.2 - - - - - - -
25/05:00am 10.3 NNW 14 23 1005.3 - 14.2 - - - - - - -
25/04:32am 10.8 NW 15 29 1004.8 - 13.6 - - - - - - -
25/04:30am 10.9 NW 15 24 1004.7 - 13.6 - - - - - - -
25/04:28am 10.8 WNW 16 24 1004.8 - 13.6 - - - - - - -
25/04:00am 10.5 W 26 37 1004.9 - 13.6 - - - - - - -
25/03:30am 11.7 W 21 31 1004.4 - 13.4 - - - - - - -
25/03:00am 11.1 W 21 36 1004.2 - 13.4 Recent precip. - - - - - -
25/02:36am 11.3 W 24 34 1004.1 - 13.4 - - - - - - -
25/02:30am 10.7 W 23 32 1003.9 - 13.4 - - - - - - -
25/02:00am 11.5 W 22 33 1003.8 - 13.2 - - - - - - -
25/01:30am 11.4 W 18 30 1003.4 - 13.2 - - - - - - -
25/01:00am 11.5 W 17 30 1003.0 - 12.8 - - - - - - -
25/12:31am 11.2 W 22 32 1003.0 - 12.8 - - - - - - -
25/12:30am 11.3 W 23 32 1003.0 - 12.8 - - - - - - -
25/12:00am 10.8 W 16 27 1002.8 - 12.8 Recent precip. - - - - - -
 
Date/Time
EST
Temp
°C
Wind Pressure Rain since
9am
mm
Weather Cloud Vis
km
Sea
Height
m
Swell
Dir  Spd
kts
Gust
kts
hPa Trend Height
m
Period
s
Dir
24/11:30pm 11.3 W 17 27 1002.5 - 12.0 - - - - - - -
24/11:00pm 10.2 W 21 33 1002.2 - 11.8 - - - - - - -
24/10:43pm 9.6 WNW 19 33 1002.0 - 11.8 - - - - - - -
24/10:30pm 8.1 NW 18 29 1002.0 - 10.4 - - - - - - -
24/10:28pm 8.2 NW 18 29 1001.8 - 10.4 - - - - - - -
24/10:00pm 8.3 NW 17 26 1001.9 - 6.8 - - - - - - -
24/09:30pm 8.2 NW 18 25 1001.3 - 5.4 - - - - - - -
24/09:00pm 8.4 NNW 15 22 1001.3 - 5.0 Recent precip. - - - - - -
24/08:32pm 9.3 NW 15 25 1000.9 - 4.8 - - - - - - -
24/08:30pm 9.0 NW 14 20 1001.0 - 4.6 - - - - - - -
24/08:01pm 8.8 NW 15 26 1000.7 - 4.0 - - - - - - -
24/08:00pm 8.7 NW 15 22 1000.7 - 4.0 - - - - - - -
24/07:42pm 8.9 NW 19 29 1000.5 - 4.0 - - - - - - -
24/07:30pm 8.5 NW 18 27 1000.3 - 4.0 - - - - - - -
24/07:12pm 9.0 NW 19 32 1000.1 - 4.0 - - - - - - -
24/07:11pm 8.9 NW 19 32 1000.1 - 4.0 - - - - - - -
24/07:00pm 8.3 NNW 17 29 1000.1 - 3.6 - - - - - - -
24/06:41pm 8.2 NNW 15 25 999.8 - 2.4 - - - - - - -
24/06:30pm 8.2 NNW 17 25 999.7 - 2.4 - - - - - - -
24/06:00pm 8.2 NNW 16 23 999.7 - 2.0 Rain - - - - - -
24/05:30pm 8.0 NNW 17 25 999.2 - 1.4 - - - - - - -
24/05:00pm 7.9 NNW 17 26 999.2 - 1.2 - - - - - - -
24/04:31pm 8.0 NNW 17 27 999.2 - 1.0 - - - - - - -
24/04:30pm 8.1 NNW 16 25 999.3 - 1.0 - - - - - - -
24/04:00pm 8.5 NNW 19 30 999.6 - 0.6 - - - - - - -
24/03:30pm 9.1 NNW 16 27 999.6 - 0.2 - - - - - - -
24/03:27pm 9.1 N 15 27 999.5 - 0.2 - - - - - - -
24/03:00pm 9.6 N 12 21 999.7 - 0.0 - - - - - - -
24/02:30pm 9.7 N 13 20 1000.3 - 0.0 - - - - - - -
24/02:01pm 10.0 N 19 29 1000.9 - 0.0 - - - - - - -
24/02:00pm 10.0 N 20 29 1000.9 - 0.0 - - - - - - -
24/01:30pm 10.9 N 16 26 1001.3 - 0.0 - - - - - - -
24/01:05pm 10.1 N 16 26 1002.0 - 0.0 - - - - - - -
24/01:00pm 9.7 N 16 24 1002.2 - 0.0 - - - - - - -
24/12:30pm 9.4 N 17 27 1002.9 - 0.0 - - - - - - -
24/12:00pm 10.0 N 15 26 1003.5 - 0.0 - - - - - - -
24/11:56am 10.0 N 15 26 1003.5 - 0.0 - - - - - - -
24/11:30am 9.1 N 14 22 1004.3 - 0.0 - - - - - - -
24/11:00am 8.8 N 16 27 1004.9 - 0.0 - - - - - - -
24/10:52am 8.8 N 15 25 1005.1 - 0.0 - - - - - - -
24/10:30am 8.7 N 14 22 1005.4 - 0.0 - - - - - - -
24/10:00am 7.5 N 12 18 1005.7 - 0.0 - - - - - - -
24/09:30am 7.1 N 11 18 1006.1 - 0.0 - - - - - - -
24/09:00am 6.4 N 13 22 1006.2 - 0.6 - - - - - - -
24/08:30am 5.9 N 14 21 1006.5 - 0.6 - - - - - - -
24/08:00am 5.5 N 15 22 1006.7 - 0.6 - - - - - - -
24/07:30am 5.3 NNW 14 20 1006.9 - 0.6 - - - - - - -
24/07:00am 5.3 N 14 19 1006.9 - 0.6 - - - - - - -
24/06:30am 5.3 N 13 19 1007.1 - 0.6 - - - - - - -
24/06:00am 5.4 N 12 17 1007.3 - 0.6 - - - - - - -
24/05:30am 5.6 NNW 13 22 1007.6 - 0.6 - - - - - - -
24/05:00am 5.7 NNW 12 17 1008.0 - 0.6 - - - - - - -
24/04:30am 5.6 NNW 13 19 1008.3 - 0.6 - - - - - - -
24/04:00am 5.6 N 13 20 1008.6 - 0.6 - - - - - - -

Other Formats:

Comma delimited format used in spreadsheet applications
http://www.bom.gov.au/fwo/IDV60701/IDV60701.94826.axf

JavaScript Object Notation format (JSON) in row-major order
http://www.bom.gov.au/fwo/IDV60701/IDV60701.94826.json